Time;durP1;ratioP1;P1;durP2;ratioP2;P2;SDS_P1;SDS_P2;PMS_P1;PMS_P2;Temp;Humidity;BMP_temperature;BMP_pressure;BME280_temperature;BME280_humidity;BME280_pressure;Samples;Min_cycle;Max_cycle;Signal;HPM_P1;HPM_P2
2021/12/17 00:00:24;;;;;;;;;;;8.20;97.10;;;;;;5095189;28;19920;-70
2021/12/17 00:06:14;;;;;;;;;;;8.10;97.10;;;;;;5089855;28;19912;-70
2021/12/17 00:08:19;;;;;;;;;;;8.20;97.20;;;;;;5104394;28;19932;-70
2021/12/17 00:10:45;;;;;;;;;;;8.20;97.20;;;;;;5128176;27;20026;-70
2021/12/17 00:13:11;;;;;;;;;;;8.10;97.10;;;;;;5091939;28;19912;-70
2021/12/17 00:15:37;;;;;;;;;;;8.10;97.10;;;;;;5086139;28;19965;-70
2021/12/17 00:18:12;;;;;;;;;;;8.10;97.20;;;;;;5087859;28;19920;-70
2021/12/17 00:52:54;;;;;;;;;;;8.10;97.10;;;;;;5089406;28;19919;-70
2021/12/17 00:55:19;;;;;;;;;;;8.10;97.10;;;;;;5096621;28;19916;-70
2021/12/17 00:57:45;;;;;;;;;;;8.10;97.20;;;;;;5082767;28;20288;-70
2021/12/17 01:00:17;;;;;;;;;;;8.10;97.10;;;;;;5095243;28;19920;-70
2021/12/17 01:02:43;;;;;;;;;;;8.10;97.20;;;;;;5118596;27;19912;-70
2021/12/17 01:05:13;;;;;;;;;;;8.10;97.10;;;;;;5098399;28;19987;-70
2021/12/17 01:07:41;;;;;;;;;;;8.10;97.20;;;;;;5091139;28;19914;-70
2021/12/17 01:10:09;;;;;;;;;;;8.10;97.10;;;;;;5092999;28;19912;-70
2021/12/17 01:12:35;;;;;;;;;;;8.10;97.20;;;;;;5093004;28;19921;-70
2021/12/17 01:15:01;;;;;;;;;;;8.10;97.10;;;;;;5092863;28;19912;-70
2021/12/17 01:17:29;;;;;;;;;;;8.10;97.10;;;;;;5090860;28;19923;-70
2021/12/17 01:23:32;;;;;;;;;;;8.10;97.20;;;;;;5042929;28;20409;-70
2021/12/17 01:36:40;;;;;;;;;;;8.10;97.10;;;;;;5087212;28;19962;-70
2021/12/17 01:44:22;;;;;;;;;;;8.10;97.10;;;;;;5098667;28;20360;-70
2021/12/17 01:46:50;;;;;;;;;;;8.10;97.10;;;;;;5095447;28;19965;-70
2021/12/17 01:49:28;;;;;;;;;;;8.10;97.10;;;;;;5099260;28;20022;-70
2021/12/17 02:00:04;;;;;;;;;;;8.10;97.10;;;;;;5090918;28;20465;-70
2021/12/17 02:02:32;;;;;;;;;;;8.10;97.10;;;;;;5079256;28;19909;-70
2021/12/17 02:04:58;;;;;;;;;;;8.10;97.10;;;;;;5085547;28;19917;-70
2021/12/17 02:07:24;;;;;;;;;;;8.10;97.20;;;;;;5083795;28;19916;-70
2021/12/17 02:28:47;;;;;;;;;;;8.10;97.10;;;;;;5100164;28;19928;-70
2021/12/17 02:31:32;;;;;;;;;;;8.10;97.10;;;;;;5095462;28;19912;-70
2021/12/17 02:34:01;;;;;;;;;;;8.10;97.10;;;;;;5101349;28;19927;-70
2021/12/17 02:36:30;;;;;;;;;;;8.10;97.10;;;;;;5091999;28;19909;-70
2021/12/17 02:39:09;;;;;;;;;;;8.00;97.10;;;;;;5098128;28;20026;-70
2021/12/17 02:47:06;;;;;;;;;;;8.00;97.10;;;;;;5094361;28;19956;-70
2021/12/17 02:49:32;;;;;;;;;;;8.00;97.10;;;;;;5096563;28;19968;-70
2021/12/17 02:51:59;;;;;;;;;;;8.00;97.10;;;;;;5091690;28;19923;-70
2021/12/17 02:54:24;;;;;;;;;;;8.00;97.10;;;;;;5100127;28;19969;-70
2021/12/17 02:56:50;;;;;;;;;;;8.00;97.10;;;;;;5092905;28;19916;-70
2021/12/17 02:59:15;;;;;;;;;;;8.00;97.10;;;;;;5097627;28;20307;-70
2021/12/17 03:01:44;;;;;;;;;;;8.10;97.10;;;;;;5093635;28;19912;-70
2021/12/17 03:04:11;;;;;;;;;;;8.00;97.10;;;;;;5093924;28;19968;-69
2021/12/17 03:06:36;;;;;;;;;;;8.00;97.10;;;;;;5091301;28;19915;-70
2021/12/17 03:09:04;;;;;;;;;;;8.00;97.10;;;;;;5092919;28;19912;-70
2021/12/17 03:11:29;;;;;;;;;;;8.00;97.10;;;;;;5096045;28;19995;-70
2021/12/17 03:13:55;;;;;;;;;;;8.10;97.10;;;;;;5092336;28;20582;-70
2021/12/17 03:17:37;;;;;;;;;;;8.00;97.10;;;;;;5092739;28;20443;-70
2021/12/17 03:23:26;;;;;;;;;;;8.00;97.10;;;;;;5087100;28;20345;-70
2021/12/17 03:24:55;;;;;;;;;;;8.00;97.10;;;;;;5087754;28;20101;-70
2021/12/17 03:27:20;;;;;;;;;;;8.10;97.10;;;;;;5093044;28;20007;-70
2021/12/17 03:29:46;;;;;;;;;;;8.00;97.10;;;;;;5089519;28;19987;-70
2021/12/17 03:32:11;;;;;;;;;;;8.10;97.10;;;;;;5094929;28;19908;-70
2021/12/17 03:34:37;;;;;;;;;;;8.00;97.10;;;;;;5092098;28;19962;-70
2021/12/17 03:37:03;;;;;;;;;;;8.00;97.10;;;;;;5094751;28;19912;-70
2021/12/17 03:39:30;;;;;;;;;;;8.00;97.10;;;;;;5092657;28;19967;-71
2021/12/17 03:41:57;;;;;;;;;;;8.00;97.10;;;;;;5077872;28;19908;-70
2021/12/17 03:44:22;;;;;;;;;;;8.10;97.10;;;;;;5086007;28;20262;-70
2021/12/17 03:46:49;;;;;;;;;;;8.00;97.10;;;;;;5093050;28;19912;-70
2021/12/17 03:49:14;;;;;;;;;;;8.00;97.10;;;;;;5090463;28;19916;-71
2021/12/17 03:52:04;;;;;;;;;;;8.00;97.10;;;;;;5092597;28;20150;-70
2021/12/17 03:54:29;;;;;;;;;;;8.00;97.10;;;;;;5090459;28;19911;-70
2021/12/17 03:56:55;;;;;;;;;;;8.00;97.10;;;;;;5096820;28;19919;-71
2021/12/17 03:59:20;;;;;;;;;;;8.10;97.10;;;;;;5092726;28;19931;-70
2021/12/17 04:01:46;;;;;;;;;;;8.00;97.10;;;;;;5105424;28;20002;-70
2021/12/17 04:04:11;;;;;;;;;;;8.00;97.10;;;;;;5097940;28;20296;-70
2021/12/17 04:06:39;;;;;;;;;;;8.00;97.10;;;;;;5095258;28;20781;-70
2021/12/17 04:09:04;;;;;;;;;;;8.00;97.10;;;;;;5091278;28;19919;-70
2021/12/17 04:11:31;;;;;;;;;;;8.00;97.10;;;;;;5098943;28;20316;-70
2021/12/17 04:13:57;;;;;;;;;;;8.00;97.10;;;;;;5090154;28;20807;-70
2021/12/17 04:16:25;;;;;;;;;;;8.00;97.10;;;;;;5099405;28;19965;-70
2021/12/17 04:18:50;;;;;;;;;;;8.00;97.10;;;;;;5094720;28;19920;-70
2021/12/17 04:21:16;;;;;;;;;;;8.00;97.10;;;;;;5097155;28;19923;-70
2021/12/17 04:23:43;;;;;;;;;;;8.00;97.10;;;;;;5099430;28;19916;-70
2021/12/17 04:26:08;;;;;;;;;;;8.00;97.10;;;;;;5099046;28;19947;-70
2021/12/17 04:28:37;;;;;;;;;;;8.00;97.10;;;;;;5098950;28;19966;-70
2021/12/17 04:31:03;;;;;;;;;;;8.00;97.10;;;;;;5097014;28;19915;-70
2021/12/17 04:33:28;;;;;;;;;;;8.00;97.10;;;;;;5098692;28;19966;-70
2021/12/17 04:35:54;;;;;;;;;;;8.00;97.10;;;;;;5092233;28;20556;-70
2021/12/17 04:38:21;;;;;;;;;;;8.00;97.10;;;;;;5095850;28;20006;-70
2021/12/17 04:40:49;;;;;;;;;;;8.00;97.10;;;;;;5085705;28;19915;-71
2021/12/17 04:43:35;;;;;;;;;;;8.00;97.10;;;;;;5086648;28;20285;-70
2021/12/17 04:46:28;;;;;;;;;;;8.10;97.10;;;;;;5088953;28;19908;-70
2021/12/17 04:59:50;;;;;;;;;;;8.00;97.10;;;;;;5093909;28;19949;-70
2021/12/17 05:02:17;;;;;;;;;;;8.00;97.10;;;;;;5100189;28;19908;-70
2021/12/17 05:04:43;;;;;;;;;;;8.00;97.10;;;;;;5092189;28;20532;-70
2021/12/17 05:07:12;;;;;;;;;;;8.00;97.10;;;;;;5090476;28;19923;-70
2021/12/17 05:09:47;;;;;;;;;;;8.10;97.10;;;;;;5090168;28;19999;-70
2021/12/17 05:20:45;;;;;;;;;;;8.00;97.10;;;;;;5090739;28;20083;-70
2021/12/17 05:23:10;;;;;;;;;;;8.00;97.10;;;;;;5088448;28;20735;-70
2021/12/17 05:25:36;;;;;;;;;;;8.10;97.10;;;;;;5104976;27;19916;-70
2021/12/17 05:28:02;;;;;;;;;;;8.00;97.10;;;;;;5092264;28;19947;-70
2021/12/17 05:30:32;;;;;;;;;;;8.00;97.10;;;;;;5088142;28;19939;-70
2021/12/17 05:32:57;;;;;;;;;;;8.10;97.10;;;;;;5088658;28;19915;-70
2021/12/17 05:35:23;;;;;;;;;;;8.00;97.10;;;;;;5089264;28;20514;-70
2021/12/17 05:37:49;;;;;;;;;;;8.00;97.10;;;;;;5092188;28;19916;-70
2021/12/17 05:40:14;;;;;;;;;;;8.00;97.10;;;;;;5088331;28;19912;-70
2021/12/17 05:42:41;;;;;;;;;;;8.10;97.10;;;;;;5088636;28;19918;-70
2021/12/17 05:45:20;;;;;;;;;;;8.10;97.10;;;;;;5088430;28;19922;-70
2021/12/17 05:47:45;;;;;;;;;;;8.00;97.10;;;;;;5090580;28;19912;-70
2021/12/17 05:50:11;;;;;;;;;;;8.10;97.10;;;;;;5091161;28;19908;-70
2021/12/17 05:52:37;;;;;;;;;;;8.00;97.10;;;;;;5089561;28;19915;-70
2021/12/17 05:55:02;;;;;;;;;;;8.00;97.10;;;;;;5088112;28;19916;-70
2021/12/17 05:57:28;;;;;;;;;;;8.00;97.10;;;;;;5093304;28;19916;-70
2021/12/17 05:59:53;;;;;;;;;;;8.00;97.10;;;;;;5089155;28;19955;-70
2021/12/17 06:02:19;;;;;;;;;;;8.00;97.10;;;;;;5099485;28;19920;-71
2021/12/17 06:04:45;;;;;;;;;;;8.00;97.10;;;;;;5088676;28;19920;-70
2021/12/17 06:07:11;;;;;;;;;;;8.00;97.10;;;;;;5098632;28;19919;-70
2021/12/17 06:09:36;;;;;;;;;;;8.00;97.10;;;;;;5090263;28;20293;-70
2021/12/17 06:12:02;;;;;;;;;;;8.00;97.10;;;;;;5102478;28;20591;-70
2021/12/17 06:14:27;;;;;;;;;;;8.00;97.10;;;;;;5090280;28;20502;-70
2021/12/17 06:16:53;;;;;;;;;;;8.00;97.10;;;;;;5100772;28;19959;-70
2021/12/17 06:19:19;;;;;;;;;;;8.00;97.10;;;;;;5089103;28;19928;-70
2021/12/17 06:21:46;;;;;;;;;;;8.00;97.10;;;;;;5101292;28;19948;-70
2021/12/17 06:24:11;;;;;;;;;;;8.00;97.10;;;;;;5089603;28;19908;-70
2021/12/17 06:26:37;;;;;;;;;;;8.00;97.10;;;;;;5088457;28;19936;-70
2021/12/17 06:29:03;;;;;;;;;;;8.00;97.10;;;;;;5092268;28;19920;-70
2021/12/17 06:31:28;;;;;;;;;;;8.00;97.10;;;;;;5088688;28;19912;-71
2021/12/17 06:33:53;;;;;;;;;;;8.00;97.10;;;;;;5092756;28;20384;-71
2021/12/17 06:36:19;;;;;;;;;;;8.10;97.10;;;;;;5089262;28;19920;-70
2021/12/17 06:38:44;;;;;;;;;;;8.10;97.20;;;;;;5093217;28;20491;-71
2021/12/17 06:41:10;;;;;;;;;;;8.00;97.10;;;;;;5097692;28;19923;-71
2021/12/17 06:43:41;;;;;;;;;;;8.00;97.10;;;;;;5087622;28;20586;-71
2021/12/17 06:48:41;;;;;;;;;;;8.00;97.10;;;;;;5089367;28;19912;-71
2021/12/17 07:08:16;;;;;;;;;;;8.00;97.10;;;;;;5099772;28;20268;-70
2021/12/17 07:10:28;;;;;;;;;;;8.00;97.10;;;;;;5090262;28;19940;-70
2021/12/17 07:34:03;;;;;;;;;;;8.00;97.20;;;;;;5091837;28;19943;-70
2021/12/17 07:36:39;;;;;;;;;;;8.00;97.20;;;;;;5093478;28;19932;-70
2021/12/17 07:39:04;;;;;;;;;;;8.00;97.10;;;;;;5092900;28;19924;-70
2021/12/17 07:41:30;;;;;;;;;;;8.00;97.20;;;;;;5091898;28;19968;-70
2021/12/17 07:43:59;;;;;;;;;;;8.00;97.20;;;;;;5092597;28;20293;-70
2021/12/17 07:46:24;;;;;;;;;;;8.00;97.20;;;;;;5094652;28;19916;-70
2021/12/17 07:48:50;;;;;;;;;;;8.00;97.20;;;;;;5088514;28;19920;-70
2021/12/17 07:51:17;;;;;;;;;;;8.00;97.20;;;;;;5101500;28;20006;-70
2021/12/17 07:53:43;;;;;;;;;;;8.00;97.20;;;;;;5089970;28;19957;-70
2021/12/17 07:56:10;;;;;;;;;;;8.00;97.20;;;;;;5097446;28;19966;-70
2021/12/17 07:58:36;;;;;;;;;;;8.00;97.20;;;;;;5094972;28;19913;-70
2021/12/17 08:01:04;;;;;;;;;;;8.00;97.20;;;;;;5094819;28;19923;-70
2021/12/17 08:03:29;;;;;;;;;;;8.00;97.20;;;;;;5094105;28;19965;-70
2021/12/17 08:05:55;;;;;;;;;;;8.00;97.20;;;;;;5092652;28;20335;-70
2021/12/17 08:08:21;;;;;;;;;;;8.00;97.20;;;;;;5092838;28;19916;-70
2021/12/17 08:10:49;;;;;;;;;;;8.00;97.20;;;;;;5103226;28;19912;-70
2021/12/17 08:13:22;;;;;;;;;;;8.00;97.20;;;;;;5092973;28;19911;-70
2021/12/17 08:16:18;;;;;;;;;;;8.00;97.20;;;;;;5101061;28;19950;-70
2021/12/17 08:27:08;;;;;;;;;;;8.00;97.30;;;;;;5091629;28;19916;-70
2021/12/17 08:31:27;;;;;;;;;;;8.00;97.30;;;;;;5093361;28;19920;-70
2021/12/17 08:33:53;;;;;;;;;;;8.00;97.30;;;;;;5092197;28;20391;-70
2021/12/17 08:36:19;;;;;;;;;;;8.00;97.30;;;;;;5096073;28;19912;-70
2021/12/17 08:38:45;;;;;;;;;;;8.00;97.30;;;;;;5092040;28;19912;-70
2021/12/17 08:41:11;;;;;;;;;;;8.00;97.30;;;;;;5092920;28;19915;-70
2021/12/17 08:43:37;;;;;;;;;;;8.00;97.30;;;;;;5090656;28;19924;-70
2021/12/17 08:46:03;;;;;;;;;;;8.00;97.30;;;;;;5091384;28;20357;-70
2021/12/17 08:48:29;;;;;;;;;;;8.00;97.30;;;;;;5087971;28;19955;-70
2021/12/17 08:50:54;;;;;;;;;;;8.00;97.30;;;;;;5087495;28;19966;-70
2021/12/17 08:53:20;;;;;;;;;;;8.00;97.30;;;;;;5094143;28;19911;-70
2021/12/17 08:55:46;;;;;;;;;;;8.10;97.40;;;;;;5089618;28;19913;-70
2021/12/17 08:58:14;;;;;;;;;;;8.00;97.40;;;;;;5092498;28;19920;-70
2021/12/17 09:00:40;;;;;;;;;;;8.00;97.40;;;;;;5090679;28;19912;-70
2021/12/17 09:03:09;;;;;;;;;;;8.00;97.40;;;;;;5089774;28;20595;-70
2021/12/17 09:05:37;;;;;;;;;;;8.00;97.30;;;;;;5088171;28;20401;-70
2021/12/17 09:08:06;;;;;;;;;;;8.00;97.40;;;;;;5092564;28;19941;-70
2021/12/17 09:10:33;;;;;;;;;;;8.00;97.40;;;;;;5106306;28;19909;-70
2021/12/17 09:12:59;;;;;;;;;;;8.10;97.40;;;;;;5089543;28;19920;-70
2021/12/17 09:15:24;;;;;;;;;;;8.10;97.40;;;;;;5104835;28;19912;-70
2021/12/17 09:17:50;;;;;;;;;;;8.10;97.30;;;;;;5091075;28;19991;-70
2021/12/17 09:20:16;;;;;;;;;;;8.10;97.40;;;;;;5094742;28;20272;-71
2021/12/17 09:22:41;;;;;;;;;;;8.10;97.40;;;;;;5090153;28;19981;-70
2021/12/17 09:25:07;;;;;;;;;;;8.10;97.40;;;;;;5101965;28;19912;-70
2021/12/17 09:27:33;;;;;;;;;;;8.10;97.40;;;;;;5091038;28;19912;-70
2021/12/17 09:29:58;;;;;;;;;;;8.10;97.50;;;;;;5095024;28;19954;-70
2021/12/17 09:32:24;;;;;;;;;;;8.10;97.40;;;;;;5090424;28;20351;-70
2021/12/17 09:34:49;;;;;;;;;;;8.10;97.50;;;;;;5100092;28;19915;-70
2021/12/17 09:37:15;;;;;;;;;;;8.10;97.50;;;;;;5092893;28;19912;-71
2021/12/17 09:39:41;;;;;;;;;;;8.10;97.60;;;;;;5093462;28;20432;-70
2021/12/17 09:42:06;;;;;;;;;;;8.10;97.60;;;;;;5090719;28;19912;-70
2021/12/17 09:44:32;;;;;;;;;;;8.10;97.60;;;;;;5099425;28;19923;-70
2021/12/17 09:46:59;;;;;;;;;;;8.10;97.60;;;;;;5093273;28;19923;-70
2021/12/17 09:49:24;;;;;;;;;;;8.10;97.60;;;;;;5097171;28;19912;-71
2021/12/17 09:51:50;;;;;;;;;;;8.10;97.70;;;;;;5095802;28;19927;-70
2021/12/17 09:54:16;;;;;;;;;;;8.10;97.60;;;;;;5097163;28;20002;-70
2021/12/17 09:56:42;;;;;;;;;;;8.10;97.60;;;;;;5089220;28;19949;-70
2021/12/17 09:59:08;;;;;;;;;;;8.20;97.60;;;;;;5097286;28;19920;-70
2021/12/17 10:01:37;;;;;;;;;;;8.20;97.60;;;;;;5093821;28;19920;-70
2021/12/17 10:04:12;;;;;;;;;;;8.20;97.70;;;;;;5092960;28;20413;-70
2021/12/17 10:06:38;;;;;;;;;;;8.20;97.60;;;;;;5081765;28;19980;-70
2021/12/17 10:09:03;;;;;;;;;;;8.20;97.80;;;;;;5093876;28;19923;-70
2021/12/17 10:11:29;;;;;;;;;;;8.20;97.70;;;;;;5088742;28;19920;-70
2021/12/17 10:13:55;;;;;;;;;;;8.20;97.70;;;;;;5088578;28;19919;-70
2021/12/17 10:16:21;;;;;;;;;;;8.20;97.80;;;;;;5093612;28;19931;-70
2021/12/17 10:18:47;;;;;;;;;;;8.20;98.00;;;;;;5098550;28;19919;-70
2021/12/17 10:21:23;;;;;;;;;;;8.30;97.90;;;;;;5092902;28;19963;-70
2021/12/17 10:23:49;;;;;;;;;;;8.30;97.80;;;;;;5091147;28;19908;-70
2021/12/17 10:26:16;;;;;;;;;;;8.30;98.00;;;;;;5090066;28;19912;-70
2021/12/17 10:28:52;;;;;;;;;;;8.30;97.80;;;;;;5098513;28;19908;-70
2021/12/17 10:31:17;;;;;;;;;;;8.30;97.90;;;;;;5093480;28;19919;-70
2021/12/17 10:33:48;;;;;;;;;;;8.30;97.80;;;;;;5089776;28;19912;-70
2021/12/17 10:36:14;;;;;;;;;;;8.30;97.80;;;;;;5091117;28;19958;-70
2021/12/17 10:38:43;;;;;;;;;;;8.30;98.00;;;;;;5090851;28;19943;-70
2021/12/17 10:41:14;;;;;;;;;;;8.30;97.90;;;;;;5089628;28;19916;-70
2021/12/17 10:43:46;;;;;;;;;;;8.40;97.80;;;;;;5089407;28;19920;-70
2021/12/17 10:46:29;;;;;;;;;;;8.30;97.80;;;;;;5088411;28;19919;-70
2021/12/17 10:51:48;;;;;;;;;;;8.40;97.70;;;;;;5094366;28;19920;-70
2021/12/17 10:54:21;;;;;;;;;;;8.40;97.70;;;;;;5092871;28;19908;-71
2021/12/17 10:56:46;;;;;;;;;;;8.40;97.90;;;;;;5091264;28;20293;-70
2021/12/17 10:59:12;;;;;;;;;;;8.40;98.00;;;;;;5107862;28;19930;-70
2021/12/17 11:01:39;;;;;;;;;;;8.40;97.90;;;;;;5094361;28;19920;-71
2021/12/17 11:04:10;;;;;;;;;;;8.40;98.00;;;;;;5095599;28;19915;-70
2021/12/17 11:06:51;;;;;;;;;;;8.40;97.90;;;;;;5093745;28;19919;-70
2021/12/17 11:09:35;;;;;;;;;;;8.40;98.00;;;;;;5095230;28;20299;-70
2021/12/17 11:12:06;;;;;;;;;;;8.40;97.90;;;;;;5092503;28;19955;-70
2021/12/17 11:14:32;;;;;;;;;;;8.40;97.80;;;;;;5094349;28;19913;-70
2021/12/17 11:16:57;;;;;;;;;;;8.40;97.80;;;;;;5093153;28;19985;-70
2021/12/17 11:19:23;;;;;;;;;;;8.50;97.80;;;;;;5092021;28;20300;-70
2021/12/17 11:21:49;;;;;;;;;;;8.40;97.70;;;;;;5090851;28;19920;-70
2021/12/17 11:24:14;;;;;;;;;;;8.50;97.80;;;;;;5095285;28;19916;-70
2021/12/17 11:26:40;;;;;;;;;;;8.50;97.70;;;;;;5094551;28;19916;-70
2021/12/17 11:29:06;;;;;;;;;;;8.50;97.70;;;;;;5105540;28;19912;-71
2021/12/17 11:31:32;;;;;;;;;;;8.50;97.60;;;;;;5092103;28;19941;-71
2021/12/17 11:33:59;;;;;;;;;;;8.60;97.60;;;;;;5094230;28;19920;-70
2021/12/17 11:36:24;;;;;;;;;;;8.60;97.60;;;;;;5090737;28;20018;-70
2021/12/17 11:39:02;;;;;;;;;;;8.60;97.70;;;;;;5097249;28;20599;-70
2021/12/17 11:41:47;;;;;;;;;;;8.60;97.70;;;;;;5096714;28;19951;-70
2021/12/17 11:44:13;;;;;;;;;;;8.60;97.60;;;;;;5113143;27;19916;-70
2021/12/17 11:46:39;;;;;;;;;;;8.60;97.70;;;;;;5094324;28;19916;-70
2021/12/17 11:49:07;;;;;;;;;;;8.60;97.70;;;;;;5102213;28;19908;-70
2021/12/17 11:51:34;;;;;;;;;;;8.60;97.70;;;;;;5094333;28;19918;-70
2021/12/17 11:54:15;;;;;;;;;;;8.50;97.70;;;;;;5100664;28;19916;-70
2021/12/17 11:56:41;;;;;;;;;;;8.50;97.70;;;;;;5109557;27;19919;-71
2021/12/17 11:59:32;;;;;;;;;;;8.50;97.70;;;;;;5102909;28;19916;-70
2021/12/17 12:02:04;;;;;;;;;;;8.50;97.60;;;;;;5091015;28;20160;-70
2021/12/17 12:04:32;;;;;;;;;;;8.50;97.70;;;;;;5098806;28;20078;-70
2021/12/17 12:07:03;;;;;;;;;;;8.50;97.70;;;;;;5094009;28;20333;-71
2021/12/17 12:09:54;;;;;;;;;;;8.50;97.60;;;;;;5107193;28;19916;-70
2021/12/17 12:12:20;;;;;;;;;;;8.50;97.70;;;;;;5092295;28;19943;-70
2021/12/17 12:14:45;;;;;;;;;;;8.50;97.80;;;;;;5091754;28;19959;-70
2021/12/17 12:17:11;;;;;;;;;;;8.50;97.80;;;;;;5108188;27;19919;-71
2021/12/17 12:19:49;;;;;;;;;;;8.60;97.80;;;;;;5094358;28;19956;-70
2021/12/17 12:22:28;;;;;;;;;;;8.50;97.80;;;;;;5086863;28;20003;-70
2021/12/17 12:25:26;;;;;;;;;;;8.50;97.80;;;;;;5081186;28;19965;-70
2021/12/17 12:27:51;;;;;;;;;;;8.50;97.80;;;;;;5069892;28;19908;-70
2021/12/17 12:30:34;;;;;;;;;;;8.50;97.80;;;;;;5095548;28;19912;-70
2021/12/17 12:33:06;;;;;;;;;;;8.50;97.80;;;;;;5093493;28;19912;-70
2021/12/17 12:35:31;;;;;;;;;;;8.50;97.80;;;;;;5090018;28;20007;-70
2021/12/17 12:38:12;;;;;;;;;;;8.50;97.80;;;;;;5082412;28;19991;-70
2021/12/17 12:40:44;;;;;;;;;;;8.50;97.80;;;;;;5083544;28;19916;-70
2021/12/17 12:43:24;;;;;;;;;;;8.50;97.80;;;;;;5104051;28;19943;-70
2021/12/17 12:45:49;;;;;;;;;;;8.50;97.80;;;;;;5085059;28;20552;-70
2021/12/17 12:48:27;;;;;;;;;;;8.50;97.80;;;;;;5108074;27;20025;-70
2021/12/17 12:51:11;;;;;;;;;;;8.50;97.80;;;;;;5086336;28;20315;-70
2021/12/17 12:53:36;;;;;;;;;;;8.50;97.70;;;;;;5089073;28;20357;-70
2021/12/17 12:56:05;;;;;;;;;;;8.50;97.70;;;;;;5088659;28;19919;-70
2021/12/17 12:58:34;;;;;;;;;;;8.50;97.70;;;;;;5095446;28;19912;-70
2021/12/17 13:01:02;;;;;;;;;;;8.50;97.70;;;;;;5089643;28;20049;-70
2021/12/17 13:03:29;;;;;;;;;;;8.50;97.70;;;;;;5093352;28;19915;-70
2021/12/17 13:05:55;;;;;;;;;;;8.50;97.70;;;;;;5088586;28;20416;-70
2021/12/17 13:08:21;;;;;;;;;;;8.50;97.70;;;;;;5092758;28;19912;-70
2021/12/17 13:10:51;;;;;;;;;;;8.50;97.60;;;;;;5089376;28;19919;-70
2021/12/17 13:13:22;;;;;;;;;;;8.50;97.60;;;;;;5091413;28;20361;-70
2021/12/17 13:16:13;;;;;;;;;;;;;;;;;;;;;
2021/12/17 13:23:57;;;;;;;;;;;8.50;97.60;;;;;;5091152;28;20476;-70
2021/12/17 13:26:23;;;;;;;;;;;8.50;97.60;;;;;;5105844;27;20222;-70
2021/12/17 13:28:55;;;;;;;;;;;8.50;97.60;;;;;;5094898;27;20404;-70
2021/12/17 13:31:32;;;;;;;;;;;8.50;97.60;;;;;;5091228;28;19916;-70
2021/12/17 13:33:58;;;;;;;;;;;8.50;97.60;;;;;;5094073;28;19918;-70
2021/12/17 13:36:24;;;;;;;;;;;8.50;97.50;;;;;;5090936;28;19908;-70
2021/12/17 13:38:59;;;;;;;;;;;8.50;97.60;;;;;;5099872;28;19938;-70
2021/12/17 13:41:35;;;;;;;;;;;8.50;97.50;;;;;;5088747;28;19966;-70
2021/12/17 13:44:01;;;;;;;;;;;8.50;97.50;;;;;;5096655;28;19916;-70
2021/12/17 13:46:27;;;;;;;;;;;8.50;97.60;;;;;;5088933;28;19916;-70
2021/12/17 13:48:52;;;;;;;;;;;8.50;97.60;;;;;;5094488;28;20354;-70
2021/12/17 13:51:18;;;;;;;;;;;8.50;97.60;;;;;;5093956;28;19962;-70
2021/12/17 13:53:43;;;;;;;;;;;8.50;97.60;;;;;;5097485;28;19919;-70
2021/12/17 13:56:14;;;;;;;;;;;8.50;97.50;;;;;;5092902;28;19920;-70
2021/12/17 13:58:39;;;;;;;;;;;8.50;97.60;;;;;;5088632;28;20003;-70
2021/12/17 14:01:05;;;;;;;;;;;8.50;97.50;;;;;;5088263;28;19943;-70
2021/12/17 14:03:33;;;;;;;;;;;8.50;97.50;;;;;;5085770;28;19928;-70
2021/12/17 14:08:58;;;;;;;;;;;8.50;97.50;;;;;;5055751;28;20353;-70
2021/12/17 14:11:25;;;;;;;;;;;8.50;97.40;;;;;;5090220;28;19924;-70
2021/12/17 14:13:51;;;;;;;;;;;8.50;97.40;;;;;;5089255;28;19912;-70
2021/12/17 14:16:30;;;;;;;;;;;8.50;97.40;;;;;;5104277;28;19915;-70
2021/12/17 14:18:56;;;;;;;;;;;8.50;97.40;;;;;;5092209;28;19920;-70
2021/12/17 14:21:27;;;;;;;;;;;8.50;97.40;;;;;;5091531;28;19947;-70
2021/12/17 14:23:52;;;;;;;;;;;8.40;97.40;;;;;;5095757;28;19920;-70
2021/12/17 14:26:25;;;;;;;;;;;8.50;97.40;;;;;;5087818;28;19916;-70
2021/12/17 14:28:50;;;;;;;;;;;8.50;97.40;;;;;;5096549;28;19962;-71
2021/12/17 14:31:16;;;;;;;;;;;8.50;97.40;;;;;;5089040;28;19932;-70
2021/12/17 14:33:57;;;;;;;;;;;8.50;97.40;;;;;;5104790;28;19925;-70
2021/12/17 14:36:40;;;;;;;;;;;8.50;97.40;;;;;;5089776;28;19943;-70
2021/12/17 14:39:07;;;;;;;;;;;8.50;97.40;;;;;;5096143;28;19915;-70
2021/12/17 14:41:48;;;;;;;;;;;8.50;97.50;;;;;;5088284;28;19915;-71
2021/12/17 14:47:01;;;;;;;;;;;8.40;97.40;;;;;;5088344;28;20341;-70
2021/12/17 15:00:25;;;;;;;;;;;8.40;97.50;;;;;;5088314;28;19938;-70
2021/12/17 15:05:24;;;;;;;;;;;8.40;97.50;;;;;;5086570;28;19924;-70
2021/12/17 15:07:50;;;;;;;;;;;8.40;97.50;;;;;;5096533;28;19912;-70
2021/12/17 15:10:19;;;;;;;;;;;8.40;97.50;;;;;;5088197;28;19995;-70
2021/12/17 15:12:44;;;;;;;;;;;8.40;97.50;;;;;;5095958;28;19935;-70
2021/12/17 15:15:10;;;;;;;;;;;8.30;97.50;;;;;;5100306;28;20569;-70
2021/12/17 15:17:36;;;;;;;;;;;8.30;97.50;;;;;;5099483;28;19916;-70
2021/12/17 15:20:03;;;;;;;;;;;8.30;97.50;;;;;;5089340;28;19916;-70
2021/12/17 15:22:29;;;;;;;;;;;8.30;97.50;;;;;;5098863;28;19912;-70
2021/12/17 15:24:54;;;;;;;;;;;8.30;97.50;;;;;;5088458;28;19923;-70
2021/12/17 15:27:20;;;;;;;;;;;8.30;97.50;;;;;;5098725;28;20548;-70
2021/12/17 15:29:46;;;;;;;;;;;8.30;97.50;;;;;;5093454;28;19912;-70
2021/12/17 15:32:12;;;;;;;;;;;8.30;97.50;;;;;;5093716;28;19915;-70
2021/12/17 15:34:37;;;;;;;;;;;8.30;97.50;;;;;;5091704;28;19921;-70
2021/12/17 15:37:03;;;;;;;;;;;8.30;97.50;;;;;;5091153;28;20479;-70
2021/12/17 15:39:28;;;;;;;;;;;8.30;97.50;;;;;;5098386;28;19916;-70
2021/12/17 15:41:54;;;;;;;;;;;8.20;97.50;;;;;;5092989;28;19941;-70
2021/12/17 15:44:19;;;;;;;;;;;8.20;97.50;;;;;;5098675;28;19920;-70
2021/12/17 15:46:45;;;;;;;;;;;8.20;97.50;;;;;;5096343;28;19912;-70
2021/12/17 15:49:11;;;;;;;;;;;8.20;97.50;;;;;;5095416;28;19912;-70
2021/12/17 15:51:36;;;;;;;;;;;8.20;97.50;;;;;;5091564;28;19936;-70
2021/12/17 15:54:02;;;;;;;;;;;8.20;97.50;;;;;;5098729;28;19936;-71
2021/12/17 15:56:29;;;;;;;;;;;8.20;97.50;;;;;;5091315;28;20319;-70
2021/12/17 15:58:54;;;;;;;;;;;8.20;97.50;;;;;;5091217;28;19948;-70
2021/12/17 16:01:20;;;;;;;;;;;8.20;97.50;;;;;;5127439;27;21464;-70
2021/12/17 16:03:47;;;;;;;;;;;8.20;97.50;;;;;;5091598;28;19912;-70
2021/12/17 16:06:13;;;;;;;;;;;8.10;97.40;;;;;;5084364;28;19915;-70
2021/12/17 16:08:44;;;;;;;;;;;8.10;97.40;;;;;;5090041;28;19916;-70
2021/12/17 16:16:54;;;;;;;;;;;8.10;97.50;;;;;;5069006;28;19991;-70
2021/12/17 16:22:00;;;;;;;;;;;8.10;97.50;;;;;;5093794;28;19984;-70
2021/12/17 16:24:26;;;;;;;;;;;8.10;97.60;;;;;;5089945;28;20013;-70
2021/12/17 16:26:54;;;;;;;;;;;8.00;97.60;;;;;;5093694;28;20011;-70
2021/12/17 16:29:20;;;;;;;;;;;8.10;97.60;;;;;;5090029;28;19919;-70
2021/12/17 16:31:47;;;;;;;;;;;8.00;97.60;;;;;;5090752;28;19912;-70
2021/12/17 16:34:12;;;;;;;;;;;8.00;97.70;;;;;;5092264;28;20408;-70
2021/12/17 16:36:40;;;;;;;;;;;8.00;97.70;;;;;;5102953;28;20037;-70
2021/12/17 16:39:15;;;;;;;;;;;8.00;97.60;;;;;;5090086;28;19923;-70
2021/12/17 16:41:40;;;;;;;;;;;8.00;97.60;;;;;;5105564;28;19908;-70
2021/12/17 16:44:09;;;;;;;;;;;8.00;97.70;;;;;;5093782;28;19916;-70
2021/12/17 16:49:06;;;;;;;;;;;8.00;97.70;;;;;;5089414;28;19911;-70
2021/12/17 16:51:32;;;;;;;;;;;8.00;97.70;;;;;;5087561;28;19962;-70
2021/12/17 16:53:57;;;;;;;;;;;8.00;97.70;;;;;;5091036;28;19920;-70
2021/12/17 16:56:24;;;;;;;;;;;8.00;97.70;;;;;;5089647;28;19915;-70
2021/12/17 16:58:49;;;;;;;;;;;8.00;97.70;;;;;;5091480;28;19999;-70
2021/12/17 17:01:15;;;;;;;;;;;8.00;97.70;;;;;;5089899;28;20011;-70
2021/12/17 17:03:41;;;;;;;;;;;8.00;97.70;;;;;;5100616;28;19938;-70
2021/12/17 17:06:07;;;;;;;;;;;8.00;97.60;;;;;;5096402;28;19937;-70
2021/12/17 17:08:32;;;;;;;;;;;7.90;97.60;;;;;;5091932;28;20719;-70
2021/12/17 17:11:02;;;;;;;;;;;8.00;97.70;;;;;;5095288;28;19919;-70
2021/12/17 17:13:28;;;;;;;;;;;7.90;97.60;;;;;;5094439;28;20521;-70
2021/12/17 17:15:56;;;;;;;;;;;7.90;97.60;;;;;;5093997;28;19919;-70
2021/12/17 17:18:22;;;;;;;;;;;7.90;97.70;;;;;;5092428;28;19920;-70
2021/12/17 17:20:48;;;;;;;;;;;7.90;97.70;;;;;;5093824;28;20012;-70
2021/12/17 17:23:13;;;;;;;;;;;7.90;97.70;;;;;;5099203;28;19934;-70
2021/12/17 17:25:39;;;;;;;;;;;7.90;97.70;;;;;;5088812;28;20309;-70
2021/12/17 17:28:05;;;;;;;;;;;7.90;97.70;;;;;;5096755;28;19920;-70
2021/12/17 17:30:31;;;;;;;;;;;7.90;97.70;;;;;;5091565;28;20303;-70
2021/12/17 17:32:57;;;;;;;;;;;7.90;97.70;;;;;;5090647;28;19933;-70
2021/12/17 17:35:22;;;;;;;;;;;7.90;97.70;;;;;;5095561;28;19989;-70
2021/12/17 17:37:48;;;;;;;;;;;7.90;97.80;;;;;;5096808;28;19939;-70
2021/12/17 17:40:14;;;;;;;;;;;7.90;97.80;;;;;;5089919;28;20006;-70
2021/12/17 17:42:39;;;;;;;;;;;7.80;97.80;;;;;;5094827;28;20516;-70
2021/12/17 17:45:05;;;;;;;;;;;7.80;97.80;;;;;;5088344;28;19927;-70
2021/12/17 17:47:31;;;;;;;;;;;7.80;97.80;;;;;;5096923;28;20006;-70
2021/12/17 17:49:57;;;;;;;;;;;7.80;97.80;;;;;;5088724;28;20034;-70
2021/12/17 17:52:22;;;;;;;;;;;7.80;97.80;;;;;;5089576;28;19938;-70
2021/12/17 17:54:48;;;;;;;;;;;7.80;97.80;;;;;;5089714;28;19922;-70